Time;durP1;ratioP1;P1;durP2;ratioP2;P2;SDS_P1;SDS_P2;PMS_P1;PMS_P2;Temp;Humidity;BMP_temperature;BMP_pressure;BME280_temperature;BME280_humidity;BME280_pressure;Samples;Min_cycle;Max_cycle;Signal;HPM_P1;HPM_P2
2023/02/20 00:00:38;;;;;;;;;;;;;;;6.64;100.00;97596.09;5095984;28;19960;-74
2023/02/20 00:03:04;;;;;;;;;;;;;;;6.64;100.00;97598.72;5095241;28;19950;-74
2023/02/20 00:05:30;;;;;;;;;;;;;;;6.64;100.00;97603.13;5095158;28;19948;-74
2023/02/20 00:07:56;;;;;;;;;;;;;;;6.64;100.00;97606.53;5076971;28;19947;-74
2023/02/20 00:10:23;;;;;;;;;;;;;;;6.63;100.00;97611.91;5095299;28;19945;-74
2023/02/20 00:12:49;;;;;;;;;;;;;;;6.63;100.00;97612.72;5094830;28;19948;-74
2023/02/20 00:15:18;;;;;;;;;;;;;;;6.62;100.00;97618.09;5095023;28;19958;-74
2023/02/20 00:17:46;;;;;;;;;;;;;;;6.62;100.00;97607.69;5095143;28;19949;-74
2023/02/20 00:20:17;;;;;;;;;;;;;;;6.62;100.00;97612.88;5077054;28;19949;-74
2023/02/20 00:22:42;;;;;;;;;;;;;;;6.63;100.00;97606.69;5094911;28;19952;-74
2023/02/20 00:25:08;;;;;;;;;;;;;;;6.62;100.00;97597.25;5094895;28;20015;-74
2023/02/20 00:27:34;;;;;;;;;;;;;;;6.63;100.00;97601.47;5094916;28;19954;-74
2023/02/20 00:30:00;;;;;;;;;;;;;;;6.63;100.00;97593.66;5094976;28;19972;-73
2023/02/20 00:32:26;;;;;;;;;;;;;;;6.63;100.00;97593.66;5094759;28;19990;-74
2023/02/20 00:34:52;;;;;;;;;;;;;;;6.61;100.00;97585.19;5094660;28;19977;-74
2023/02/20 00:37:18;;;;;;;;;;;;;;;6.61;100.00;97572.97;5094598;28;19952;-74
2023/02/20 00:39:43;;;;;;;;;;;;;;;6.62;100.00;97584.22;5094683;28;19945;-74
2023/02/20 00:42:09;;;;;;;;;;;;;;;6.62;100.00;97585.03;5094611;28;19944;-74
2023/02/20 00:44:35;;;;;;;;;;;;;;;6.60;100.00;97586.97;5094939;28;20030;-74
2023/02/20 00:47:01;;;;;;;;;;;;;;;6.60;100.00;97594.00;5094447;28;20049;-75
2023/02/20 00:49:27;;;;;;;;;;;;;;;6.59;100.00;97600.97;5094112;28;19951;-74
2023/02/20 00:51:53;;;;;;;;;;;;;;;6.60;100.00;97604.41;5094439;28;19950;-74
2023/02/20 00:54:19;;;;;;;;;;;;;;;6.59;100.00;97608.78;5094469;28;19961;-74
2023/02/20 00:56:45;;;;;;;;;;;;;;;6.60;100.00;97612.25;5094221;28;19957;-74
2023/02/20 00:59:11;;;;;;;;;;;;;;;6.59;100.00;97615.81;5094507;28;19956;-74
2023/02/20 01:01:37;;;;;;;;;;;;;;;6.58;100.00;97616.81;5075692;28;20409;-74
2023/02/20 01:04:03;;;;;;;;;;;;;;;6.59;100.00;97616.63;5094180;28;20003;-74
2023/02/20 01:06:29;;;;;;;;;;;;;;;6.58;100.00;97622.81;5094604;28;19948;-74
2023/02/20 01:08:54;;;;;;;;;;;;;;;6.57;100.00;97615.97;5093928;28;19954;-74
2023/02/20 01:11:21;;;;;;;;;;;;;;;6.58;100.00;97624.63;5094089;28;19945;-74
2023/02/20 01:13:47;;;;;;;;;;;;;;;6.58;100.00;97611.59;5076531;28;20030;-74
2023/02/20 01:16:13;;;;;;;;;;;;;;;6.57;100.00;97610.75;5094311;28;19941;-74
2023/02/20 01:18:39;;;;;;;;;;;;;;;6.58;100.00;97609.78;5093973;28;19951;-74
2023/02/20 01:21:04;;;;;;;;;;;;;;;6.57;100.00;97604.72;5093946;28;20036;-75
2023/02/20 01:23:30;;;;;;;;;;;;;;;6.58;100.00;97606.38;5093806;28;20033;-74
2023/02/20 01:25:56;;;;;;;;;;;;;;;6.57;100.00;97600.31;5093958;28;19950;-74
2023/02/20 01:28:22;;;;;;;;;;;;;;;6.57;100.00;97604.72;5094104;28;19944;-75
2023/02/20 01:30:48;;;;;;;;;;;;;;;6.57;100.00;97615.97;5093799;28;19996;-74
2023/02/20 01:33:14;;;;;;;;;;;;;;;6.56;100.00;97606.53;5093835;28;19955;-74
2023/02/20 01:35:40;;;;;;;;;;;;;;;6.55;100.00;97606.69;5093760;28;20317;-74
2023/02/20 01:38:06;;;;;;;;;;;;;;;6.56;100.00;97603.13;5093664;28;19953;-74
2023/02/20 01:40:33;;;;;;;;;;;;;;;6.56;100.00;97597.91;5093910;28;20393;-74
2023/02/20 01:42:59;;;;;;;;;;;;;;;6.54;100.00;97599.88;5093385;28;19979;-74
2023/02/20 01:45:25;;;;;;;;;;;;;;;6.53;100.00;97588.63;5093544;28;20375;-74
2023/02/20 01:47:52;;;;;;;;;;;;;;;6.53;100.00;97586.03;5093553;28;19953;-74
2023/02/20 01:50:20;;;;;;;;;;;;;;;6.52;100.00;97586.19;5093677;28;20423;-74
2023/02/20 01:52:49;;;;;;;;;;;;;;;6.53;100.00;97579.97;5093472;28;19950;-74
2023/02/20 01:55:19;;;;;;;;;;;;;;;6.53;100.00;97585.19;5093901;28;19951;-74
2023/02/20 01:57:59;;;;;;;;;;;;;;;6.51;100.00;97582.78;5093610;28;19947;-74
2023/02/20 02:00:26;;;;;;;;;;;;;;;6.49;100.00;97579.50;5093680;28;19939;-74
2023/02/20 02:03:04;;;;;;;;;;;;;;;6.48;100.00;97578.66;5096286;28;19957;-74
2023/02/20 02:05:32;;;;;;;;;;;;;;;6.47;100.00;97579.66;5097550;28;19963;-74
2023/02/20 02:07:58;;;;;;;;;;;;;;;6.46;100.00;97572.81;5097637;28;19956;-75
2023/02/20 02:10:28;;;;;;;;;;;;;;;6.45;100.00;97571.19;5097206;28;19946;-74
2023/02/20 02:12:54;;;;;;;;;;;;;;;6.45;100.00;97573.00;5098013;28;19958;-74
2023/02/20 02:15:21;;;;;;;;;;;;;;;6.44;100.00;97574.75;5097432;28;19991;-75
2023/02/20 02:17:58;;;;;;;;;;;;;;;6.43;100.00;97562.72;5097516;28;19947;-75
2023/02/20 02:20:32;;;;;;;;;;;;;;;6.43;100.00;97561.91;5097309;28;19943;-74
2023/02/20 02:23:04;;;;;;;;;;;;;;;6.40;100.00;97557.81;5097217;28;19958;-74
2023/02/20 02:25:36;;;;;;;;;;;;;;;6.39;100.00;97551.00;5079469;28;20305;-74
2023/02/20 02:28:23;;;;;;;;;;;;;;;6.38;100.00;97551.16;5096993;28;19948;-75
2023/02/20 02:30:59;;;;;;;;;;;;;;;6.35;100.00;97552.31;5097263;28;19954;-74
2023/02/20 02:33:30;;;;;;;;;;;;;;;6.35;100.00;97561.91;5085764;28;20323;-74
2023/02/20 02:35:56;;;;;;;;;;;;;;;6.34;100.00;97552.47;5097056;28;19950;-74
2023/02/20 02:38:41;;;;;;;;;;;;;;;6.33;100.00;97550.84;5078995;28;20282;-74
2023/02/20 02:41:10;;;;;;;;;;;;;;;6.30;100.00;97549.38;5096871;28;19945;-74
2023/02/20 02:43:49;;;;;;;;;;;;;;;6.30;100.00;97544.19;5097131;28;19973;-75
2023/02/20 02:46:20;;;;;;;;;;;;;;;6.28;100.00;97540.94;5097060;28;19955;-74
2023/02/20 02:49:12;;;;;;;;;;;;;;;6.24;100.00;97537.81;5096775;28;19977;-75
2023/02/20 02:51:39;;;;;;;;;;;;;;;6.22;100.00;97536.38;5065277;28;20318;-74
2023/02/20 02:54:06;;;;;;;;;;;;;;;6.18;100.00;97541.06;5096627;28;19957;-75
2023/02/20 02:56:36;;;;;;;;;;;;;;;6.18;100.00;97537.66;5096407;28;19942;-74
2023/02/20 02:59:04;;;;;;;;;;;;;;;6.18;100.00;97538.47;5096590;28;19969;-75
2023/02/20 03:01:31;;;;;;;;;;;;;;;6.19;100.00;97550.50;5096575;28;19949;-74
2023/02/20 03:03:57;;;;;;;;;;;;;;;6.15;100.00;97551.81;5096486;28;20011;-75
2023/02/20 03:06:29;;;;;;;;;;;;;;;6.14;100.00;97550.19;5096550;28;19962;-74
2023/02/20 03:09:00;;;;;;;;;;;;;;;6.10;100.00;97549.69;5083861;28;19954;-75
2023/02/20 03:11:28;;;;;;;;;;;;;;;6.09;100.00;97552.47;5096336;28;19948;-75
2023/02/20 03:16:57;;;;;;;;;;;;;;;6.06;100.00;97544.97;5095380;28;19972;-75
2023/02/20 03:19:36;;;;;;;;;;;;;;;6.03;100.00;97547.91;5096222;28;19940;-75
2023/02/20 03:22:03;;;;;;;;;;;;;;;6.02;100.00;97547.09;5096220;28;19944;-76
2023/02/20 03:24:31;;;;;;;;;;;;;;;6.02;100.00;97552.28;5077874;28;19973;-75
2023/02/20 03:26:58;;;;;;;;;;;;;;;6.03;100.00;97548.72;5096285;28;19953;-76
2023/02/20 03:29:32;;;;;;;;;;;;;;;6.00;100.00;97550.81;5095888;28;19940;-74
2023/02/20 03:43:27;;;;;;;;;;;;;;;5.70;100.00;97545.22;5095966;28;20001;-76
2023/02/20 03:46:05;;;;;;;;;;;;;;;5.69;100.00;97546.19;5095723;28;19977;-75
2023/02/20 03:48:33;;;;;;;;;;;;;;;5.68;100.00;97542.78;5095821;28;19951;-75
2023/02/20 03:50:59;;;;;;;;;;;;;;;5.69;100.00;97554.00;5095544;28;19988;-75
2023/02/20 03:53:26;;;;;;;;;;;;;;;5.69;100.00;97539.22;5077630;28;19945;-75
2023/02/20 03:55:53;;;;;;;;;;;;;;;5.69;100.00;97544.41;5096023;28;19949;-75
2023/02/20 03:58:22;;;;;;;;;;;;;;;5.69;100.00;97540.97;5095414;28;19950;-75
2023/02/20 04:00:49;;;;;;;;;;;;;;;5.67;100.00;97533.34;5095496;28;19952;-75
2023/02/20 04:03:17;;;;;;;;;;;;;;;5.65;100.00;97545.72;5095322;28;19954;-76
2023/02/20 04:05:44;;;;;;;;;;;;;;;5.62;100.00;97538.19;5080197;28;20424;-75
2023/02/20 04:08:15;;;;;;;;;;;;;;;5.58;100.00;97539.50;5095056;28;20456;-75
2023/02/20 04:10:43;;;;;;;;;;;;;;;5.54;100.00;97538.19;5095716;28;19949;-74
2023/02/20 04:13:12;;;;;;;;;;;;;;;5.51;100.00;97535.09;5095398;28;19955;-75
2023/02/20 04:15:38;;;;;;;;;;;;;;;5.46;100.00;97523.38;5079202;28;19963;-75
2023/02/20 04:18:08;;;;;;;;;;;;;;;5.42;99.82;97523.88;5095087;28;19956;-75
2023/02/20 04:20:34;;;;;;;;;;;;;;;5.38;99.85;97522.56;5095037;28;19941;-74
2023/02/20 04:23:06;;;;;;;;;;;;;;;5.33;99.80;97511.78;5095054;28;19941;-74
2023/02/20 04:25:38;;;;;;;;;;;;;;;5.27;99.63;97518.44;5094237;28;19961;-75
2023/02/20 04:28:04;;;;;;;;;;;;;;;5.21;99.32;97514.69;5094771;28;20345;-75
2023/02/20 04:30:30;;;;;;;;;;;;;;;5.16;98.83;97519.53;5094893;28;19948;-75
2023/02/20 04:32:56;;;;;;;;;;;;;;;5.10;98.71;97520.16;5094715;28;20288;-75
2023/02/20 04:35:22;;;;;;;;;;;;;;;5.03;98.47;97519.16;5095125;28;20042;-75
2023/02/20 04:37:48;;;;;;;;;;;;;;;4.97;98.47;97506.78;5094756;28;20039;-75
2023/02/20 04:40:15;;;;;;;;;;;;;;;4.91;98.69;97513.41;5076591;28;20039;-75
2023/02/20 04:42:41;;;;;;;;;;;;;;;4.86;98.61;97516.47;5094611;28;19986;-74
2023/02/20 04:45:07;;;;;;;;;;;;;;;4.82;98.72;97512.56;5094505;28;20002;-75
2023/02/20 04:47:33;;;;;;;;;;;;;;;4.78;98.90;97506.03;5076557;28;19955;-75
2023/02/20 04:49:59;;;;;;;;;;;;;;;4.76;98.76;97514.97;5094586;28;19950;-75
2023/02/20 04:52:25;;;;;;;;;;;;;;;4.71;99.27;97515.44;5076928;28;20427;-75
2023/02/20 04:54:51;;;;;;;;;;;;;;;4.67;99.04;97514.13;5094228;28;20317;-75
2023/02/20 04:57:17;;;;;;;;;;;;;;;4.64;99.04;97510.06;5094332;28;20349;-75
2023/02/20 04:59:43;;;;;;;;;;;;;;;4.60;99.00;97518.28;5094341;28;19948;-76
2023/02/20 05:02:09;;;;;;;;;;;;;;;4.55;98.79;97526.53;5094462;28;20313;-75
2023/02/20 05:04:35;;;;;;;;;;;;;;;4.51;98.93;97512.22;5094134;28;20509;-75
2023/02/20 05:07:01;;;;;;;;;;;;;;;4.46;98.75;97511.88;5094000;28;19946;-75
2023/02/20 05:09:27;;;;;;;;;;;;;;;4.41;98.69;97514.09;5094528;28;19993;-75
2023/02/20 05:11:53;;;;;;;;;;;;;;;4.36;98.44;97519.75;5094056;28;20393;-75
2023/02/20 05:14:19;;;;;;;;;;;;;;;4.33;98.37;97519.28;5094022;28;19967;-76
2023/02/20 05:16:45;;;;;;;;;;;;;;;4.26;98.72;97525.06;5094063;28;19952;-75
2023/02/20 05:19:11;;;;;;;;;;;;;;;4.22;98.63;97523.75;5093692;28;19940;-75
2023/02/20 05:24:24;;;;;;;;;;;;;;;4.16;98.68;97526.94;5094053;28;19942;-74
2023/02/20 05:26:51;;;;;;;;;;;;;;;4.13;98.32;97524.63;5093766;28;20323;-75
2023/02/20 05:29:17;;;;;;;;;;;;;;;4.06;98.68;97531.41;5094074;28;19959;-75
2023/02/20 05:31:43;;;;;;;;;;;;;;;4.04;98.51;97530.72;5093905;28;19952;-75
2023/02/20 05:34:09;;;;;;;;;;;;;;;3.99;98.53;97523.41;5093908;28;19952;-76
2023/02/20 05:36:34;;;;;;;;;;;;;;;3.97;98.55;97524.47;5075555;28;20004;-75
2023/02/20 05:39:00;;;;;;;;;;;;;;;3.94;98.66;97527.38;5093961;28;19993;-75
2023/02/20 05:41:26;;;;;;;;;;;;;;;3.90;98.82;97523.47;5093724;28;19950;-75
2023/02/20 05:43:56;;;;;;;;;;;;;;;3.85;98.55;97516.94;5093800;28;19973;-75
2023/02/20 05:46:23;;;;;;;;;;;;;;;3.81;98.79;97512.19;5093497;28;19977;-75
2023/02/20 05:48:50;;;;;;;;;;;;;;;3.77;98.52;97513.47;5094336;28;20326;-74
2023/02/20 05:51:24;;;;;;;;;;;;;;;3.75;98.65;97505.00;5093551;28;20422;-75
2023/02/20 05:53:50;;;;;;;;;;;;;;;3.71;98.70;97512.25;5093981;28;19950;-74
2023/02/20 05:56:16;;;;;;;;;;;;;;;3.69;98.85;97508.19;5093454;28;19947;-75
2023/02/20 05:58:43;;;;;;;;;;;;;;;3.68;98.72;97498.78;5093635;28;19959;-75
2023/02/20 06:01:14;;;;;;;;;;;;;;;3.63;99.02;97507.84;5093954;28;19957;-74
2023/02/20 06:03:40;;;;;;;;;;;;;;;3.62;98.97;97503.59;5093544;28;19949;-75
2023/02/20 06:06:06;;;;;;;;;;;;;;;3.59;98.90;97506.50;5093476;28;20011;-74
2023/02/20 06:08:32;;;;;;;;;;;;;;;3.58;99.15;97507.44;5075606;28;19977;-75
2023/02/20 06:10:58;;;;;;;;;;;;;;;3.57;99.18;97505.00;5093392;28;20009;-75
2023/02/20 06:13:23;;;;;;;;;;;;;;;3.55;99.32;97514.69;5094159;28;20040;-74
2023/02/20 06:15:49;;;;;;;;;;;;;;;3.55;99.30;97514.69;5093544;28;19999;-75
2023/02/20 06:18:15;;;;;;;;;;;;;;;3.52;99.46;97521.00;5093463;28;20031;-75
2023/02/20 06:20:41;;;;;;;;;;;;;;;3.51;99.47;97521.97;5093223;28;19997;-75
2023/02/20 06:23:07;;;;;;;;;;;;;;;3.51;99.98;97515.94;5093534;28;19990;-74
2023/02/20 06:25:33;;;;;;;;;;;;;;;3.49;100.00;97513.53;5093337;28;19961;-75
2023/02/20 06:27:58;;;;;;;;;;;;;;;3.49;99.82;97513.53;5093455;28;19956;-75
2023/02/20 06:30:24;;;;;;;;;;;;;;;3.50;100.00;97520.31;5093303;28;19952;-75
2023/02/20 06:32:50;;;;;;;;;;;;;;;3.49;99.82;97520.50;5092950;28;19963;-74
2023/02/20 06:35:17;;;;;;;;;;;;;;;3.49;99.95;97518.72;5093150;28;19949;-75
2023/02/20 06:37:42;;;;;;;;;;;;;;;3.50;100.00;97517.72;5093108;28;19959;-75
2023/02/20 06:40:09;;;;;;;;;;;;;;;3.51;99.88;97531.50;5093252;28;19956;-75
2023/02/20 06:42:34;;;;;;;;;;;;;;;3.51;99.66;97529.75;5093074;28;19958;-75
2023/02/20 06:45:00;;;;;;;;;;;;;;;3.52;99.31;97530.56;5092995;28;20330;-75
2023/02/20 06:47:26;;;;;;;;;;;;;;;3.52;100.00;97539.16;5093758;28;19953;-75
2023/02/20 06:49:52;;;;;;;;;;;;;;;3.54;100.00;97539.81;5078588;28;20005;-75
2023/02/20 06:52:18;;;;;;;;;;;;;;;3.66;100.00;97538.66;5096865;28;19962;-74
2023/02/20 06:54:44;;;;;;;;;;;;;;;3.95;100.00;97532.44;5078678;28;20003;-74
2023/02/20 06:57:10;;;;;;;;;;;;;;;4.31;99.09;97529.81;5096130;28;19944;-74
2023/02/20 06:59:40;;;;;;;;;;;;;;;4.67;97.45;97522.72;5096745;28;19985;-74
2023/02/20 07:02:09;;;;;;;;;;;;;;;5.05;95.70;97520.63;5096718;28;19953;-75
2023/02/20 07:04:35;;;;;;;;;;;;;;;5.44;94.14;97512.31;5078665;28;20310;-74
2023/02/20 07:07:01;;;;;;;;;;;;;;;5.83;92.75;97516.13;5096327;28;20005;-75
2023/02/20 07:09:27;;;;;;;;;;;;;;;6.17;91.68;97509.97;5095919;28;19960;-75
2023/02/20 07:11:53;;;;;;;;;;;;;;;6.53;90.39;97505.22;5078321;28;19947;-75
2023/02/20 07:14:19;;;;;;;;;;;;;;;6.90;89.31;97494.19;5096510;28;19958;-75
2023/02/20 07:16:45;;;;;;;;;;;;;;;7.25;87.65;97479.06;5096207;28;19944;-75
2023/02/20 07:19:11;;;;;;;;;;;;;;;7.45;86.82;97476.81;5096173;28;19997;-75
2023/02/20 07:21:37;;;;;;;;;;;;;;;7.74;86.09;97472.72;5096065;28;19974;-75
2023/02/20 07:24:04;;;;;;;;;;;;;;;7.93;85.01;97467.00;5096592;28;20326;-75
2023/02/20 07:26:30;;;;;;;;;;;;;;;8.09;84.27;97457.44;5096269;28;19955;-75
2023/02/20 07:28:59;;;;;;;;;;;;;;;8.30;80.40;97430.63;5077936;28;19948;-75
2023/02/20 07:31:25;;;;;;;;;;;;;;;8.30;80.91;97431.41;5095887;28;19953;-75
2023/02/20 07:33:51;;;;;;;;;;;;;;;8.47;82.68;97457.44;5096023;28;19950;-75
2023/02/20 07:36:18;;;;;;;;;;;;;;;8.74;82.47;97453.38;5095903;28;19976;-75
2023/02/20 07:38:52;;;;;;;;;;;;;;;8.98;81.48;97444.41;5096160;28;20296;-75
2023/02/20 07:41:18;;;;;;;;;;;;;;;9.20;79.86;97426.97;5078138;28;19953;-76
2023/02/20 07:43:44;;;;;;;;;;;;;;;9.21;76.19;97401.59;5095705;28;19996;-75
2023/02/20 07:46:10;;;;;;;;;;;;;;;9.12;78.30;97417.41;5095670;28;19997;-75
2023/02/20 07:48:35;;;;;;;;;;;;;;;9.08;77.73;97413.53;5095627;28;19954;-75
2023/02/20 07:51:01;;;;;;;;;;;;;;;9.07;76.45;97421.56;5095867;28;20320;-74
2023/02/20 07:53:27;;;;;;;;;;;;;;;8.98;74.08;97386.03;5095658;28;19994;-75
2023/02/20 07:55:53;;;;;;;;;;;;;;;8.79;74.49;97397.91;5096023;28;19950;-75
2023/02/20 07:58:19;;;;;;;;;;;;;;;8.70;77.27;97418.91;5095321;28;19943;-75
2023/02/20 08:00:45;;;;;;;;;;;;;;;8.54;75.93;97406.84;5094469;28;19957;-75
2023/02/20 08:03:11;;;;;;;;;;;;;;;8.49;78.06;97426.69;5095207;28;20376;-75
2023/02/20 08:05:37;;;;;;;;;;;;;;;8.63;79.63;97433.72;5095057;28;19969;-75
2023/02/20 08:08:03;;;;;;;;;;;;;;;8.80;79.11;97431.72;5095112;28;19989;-75
2023/02/20 08:10:29;;;;;;;;;;;;;;;8.75;75.72;97389.59;5095318;28;20311;-75
2023/02/20 08:12:55;;;;;;;;;;;;;;;8.48;76.26;97404.13;5077269;28;20004;-75
2023/02/20 08:15:21;;;;;;;;;;;;;;;8.28;78.18;97422.94;5095397;28;20006;-75
2023/02/20 08:17:47;;;;;;;;;;;;;;;8.12;77.27;97415.25;5095050;28;19952;-76
2023/02/20 08:20:14;;;;;;;;;;;;;;;8.09;77.88;97426.88;5095279;28;19953;-75
2023/02/20 08:22:40;;;;;;;;;;;;;;;8.24;80.30;97432.13;5094954;28;19971;-75
2023/02/20 08:25:06;;;;;;;;;;;;;;;8.44;79.72;97431.63;5095422;28;20408;-75
2023/02/20 08:27:32;;;;;;;;;;;;;;;8.65;80.64;97426.50;5095208;28;19955;-76
2023/02/20 08:29:58;;;;;;;;;;;;;;;8.89;79.48;97414.13;5076700;28;19953;-76
2023/02/20 08:32:24;;;;;;;;;;;;;;;9.00;76.55;97394.53;5094968;28;19949;-76
2023/02/20 08:34:50;;;;;;;;;;;;;;;9.22;79.30;97421.53;5094673;28;19995;-76
2023/02/20 08:37:15;;;;;;;;;;;;;;;9.51;76.94;97392.66;5059883;28;19951;-76
2023/02/20 08:39:41;;;;;;;;;;;;;;;9.62;75.38;97373.00;5049433;28;19982;-75
2023/02/20 08:42:07;;;;;;;;;;;;;;;9.68;76.69;97387.13;5094411;28;19954;-76
2023/02/20 08:44:33;;;;;;;;;;;;;;;9.64;73.26;97352.66;5094616;28;20096;-75
2023/02/20 08:46:59;;;;;;;;;;;;;;;9.58;74.92;97371.75;5094432;28;20423;-76
2023/02/20 08:49:25;;;;;;;;;;;;;;;9.56;75.14;97368.50;5094817;28;19989;-75
2023/02/20 08:51:54;;;;;;;;;;;;;;;9.49;75.29;97368.47;5094631;28;20042;-75
2023/02/20 08:54:20;;;;;;;;;;;;;;;9.60;77.75;97384.66;5094349;28;19950;-76
2023/02/20 08:56:46;;;;;;;;;;;;;;;9.76;75.69;97360.78;5094864;28;19953;-75
2023/02/20 08:59:12;;;;;;;;;;;;;;;9.90;77.06;97372.19;5094372;28;20050;-76
2023/02/20 09:01:44;;;;;;;;;;;;;;;9.76;71.85;97324.13;5094163;28;19949;-76
2023/02/20 09:04:10;;;;;;;;;;;;;;;9.67;74.23;97348.84;5094112;28;19970;-76
2023/02/20 09:06:36;;;;;;;;;;;;;;;9.84;75.09;97355.41;5094110;28;19978;-76
2023/02/20 09:09:02;;;;;;;;;;;;;;;9.91;72.49;97330.09;5094055;28;19949;-76
2023/02/20 09:11:27;;;;;;;;;;;;;;;9.97;73.71;97336.34;5093819;28;19955;-76
2023/02/20 09:13:53;;;;;;;;;;;;;;;9.93;71.49;97324.63;5093982;28;19991;-76
2023/02/20 09:16:20;;;;;;;;;;;;;;;9.92;73.21;97334.31;5094154;28;19955;-76
2023/02/20 09:18:47;;;;;;;;;;;;;;;10.06;74.95;97352.75;5094116;28;19943;-76
2023/02/20 09:21:14;;;;;;;;;;;;;;;10.14;72.40;97321.97;5093888;28;19950;-76
2023/02/20 09:23:40;;;;;;;;;;;;;;;10.25;73.64;97328.47;5094139;28;19952;-76
2023/02/20 09:26:06;;;;;;;;;;;;;;;10.45;74.87;97339.06;5093846;28;19949;-76
2023/02/20 09:28:32;;;;;;;;;;;;;;;10.55;71.82;97304.63;5094008;28;19950;-76
2023/02/20 09:30:59;;;;;;;;;;;;;;;10.65;73.86;97326.06;5093857;28;19950;-76
2023/02/20 09:33:26;;;;;;;;;;;;;;;10.81;71.95;97318.84;5075750;28;19945;-76
2023/02/20 09:35:53;;;;;;;;;;;;;;;10.87;69.27;97289.19;5094254;28;19950;-76
2023/02/20 09:38:21;;;;;;;;;;;;;;;10.93;69.90;97288.38;5093783;28;19951;-76
2023/02/20 09:40:52;;;;;;;;;;;;;;;10.98;69.63;97283.34;5093875;28;20407;-76
2023/02/20 09:43:17;;;;;;;;;;;;;;;10.98;71.66;97309.56;5093572;28;19975;-76
2023/02/20 09:45:48;;;;;;;;;;;;;;;11.03;68.90;97280.94;5093606;28;20421;-76
2023/02/20 09:48:33;;;;;;;;;;;;;;;11.04;71.91;97308.78;5093914;28;19952;-76
2023/02/20 09:51:02;;;;;;;;;;;;;;;11.06;71.83;97306.78;5093802;28;19947;-76
2023/02/20 09:53:57;;;;;;;;;;;;;;;11.20;74.64;97326.00;5093635;28;20434;-76
2023/02/20 09:56:28;;;;;;;;;;;;;;;11.22;69.19;97281.97;5075705;28;19948;-76
2023/02/20 09:58:59;;;;;;;;;;;;;;;11.21;71.39;97296.09;5093626;28;19948;-76
2023/02/20 10:01:25;;;;;;;;;;;;;;;11.22;67.67;97260.16;5093651;28;19972;-76
2023/02/20 10:03:57;;;;;;;;;;;;;;;11.25;71.64;97301.75;5093602;28;19957;-76
2023/02/20 10:06:28;;;;;;;;;;;;;;;11.28;71.92;97299.53;5093288;28;20432;-77
2023/02/20 10:08:54;;;;;;;;;;;;;;;11.27;68.14;97266.41;5078897;28;19941;-76
2023/02/20 10:11:43;;;;;;;;;;;;;;;11.24;70.37;97287.81;5093461;28;20671;-76
2023/02/20 10:14:27;;;;;;;;;;;;;;;11.35;67.50;97258.31;5093429;28;19954;-76
2023/02/20 10:16:58;;;;;;;;;;;;;;;11.30;71.12;97278.34;5093746;28;19953;-76
2023/02/20 10:19:41;;;;;;;;;;;;;;;11.52;73.02;97292.88;5093369;28;19938;-76
2023/02/20 10:22:10;;;;;;;;;;;;;;;11.88;69.99;97277.66;5093358;28;19949;-76
2023/02/20 10:24:39;;;;;;;;;;;;;;;12.09;62.67;97205.66;5097185;28;20422;-76
2023/02/20 10:27:14;;;;;;;;;;;;;;;12.19;65.27;97235.75;5097259;28;20436;-76
2023/02/20 10:29:40;;;;;;;;;;;;;;;12.23;66.91;97256.38;5097535;28;19946;-76
2023/02/20 10:32:08;;;;;;;;;;;;;;;12.29;66.93;97263.44;5079084;28;19955;-76
2023/02/20 10:34:40;;;;;;;;;;;;;;;12.42;67.92;97270.47;5097519;28;19949;-76
2023/02/20 10:37:32;;;;;;;;;;;;;;;12.50;65.03;97243.91;5097166;28;19951;-76
2023/02/20 10:40:05;;;;;;;;;;;;;;;12.66;65.84;97266.28;5093159;28;19949;-76
2023/02/20 10:42:37;;;;;;;;;;;;;;;12.71;61.77;97232.28;5096912;28;19948;-76
2023/02/20 10:45:13;;;;;;;;;;;;;;;12.59;63.94;97261.06;5097165;28;19964;-76
2023/02/20 10:47:49;;;;;;;;;;;;;;;12.61;64.06;97261.66;5081522;28;20425;-76
2023/02/20 10:50:21;;;;;;;;;;;;;;;12.73;61.26;97241.56;5096991;28;19949;-76
2023/02/20 10:53:03;;;;;;;;;;;;;;;12.84;61.11;97242.69;5082027;28;20303;-76
2023/02/20 10:55:34;;;;;;;;;;;;;;;12.98;60.22;97235.53;5096879;28;19944;-76
2023/02/20 10:58:18;;;;;;;;;;;;;;;13.13;62.95;97256.28;5096941;28;20334;-77
2023/02/20 11:00:46;;;;;;;;;;;;;;;13.24;58.69;97218.72;5096720;28;19946;-77
2023/02/20 11:03:22;;;;;;;;;;;;;;;13.37;62.75;97247.59;5085531;28;20292;-76
2023/02/20 11:05:50;;;;;;;;;;;;;;;13.52;59.01;97339.53;5096583;28;19962;-76
2023/02/20 11:08:19;;;;;;;;;;;;;;;13.69;58.85;97341.59;5096242;28;19940;-76
2023/02/20 11:10:46;;;;;;;;;;;;;;;13.86;58.33;97337.44;5096197;28;19946;-76
2023/02/20 11:13:16;;;;;;;;;;;;;;;14.04;54.80;97312.91;5096269;28;19940;-76
2023/02/20 11:15:42;;;;;;;;;;;;;;;14.19;54.99;97320.44;5096307;28;19976;-78
2023/02/20 11:18:31;;;;;;;;;;;;;;;14.33;56.91;97335.13;5096865;28;20413;-75
2023/02/20 11:20:57;;;;;;;;;;;;;;;14.48;54.24;97313.63;5087860;28;19959;-75
2023/02/20 11:23:40;;;;;;;;;;;;;;;14.63;53.90;97317.75;5078274;28;20328;-75
2023/02/20 11:26:28;;;;;;;;;;;;;;;14.73;53.35;97320.69;5096118;28;19959;-75
2023/02/20 11:28:56;;;;;;;;;;;;;;;14.86;52.91;97317.88;5096028;28;20326;-75
2023/02/20 11:31:23;;;;;;;;;;;;;;;15.03;53.02;97312.75;5095897;28;19955;-75
2023/02/20 11:33:49;;;;;;;;;;;;;;;15.17;50.32;97306.25;5095874;28;19954;-75
2023/02/20 11:36:17;;;;;;;;;;;;;;;15.30;51.07;97310.53;5096194;28;19960;-75
2023/02/20 11:38:44;;;;;;;;;;;;;;;15.36;50.42;97304.34;5095795;28;19948;-75
2023/02/20 11:41:23;;;;;;;;;;;;;;;15.49;48.19;97297.25;5078072;28;20086;-75
2023/02/20 11:44:03;;;;;;;;;;;;;;;15.56;46.63;97293.47;5095368;28;19969;-75
2023/02/20 11:46:29;;;;;;;;;;;;;;;15.66;48.99;97300.03;5095675;28;20448;-76
2023/02/20 11:48:57;;;;;;;;;;;;;;;15.70;48.85;97286.09;5095703;28;19950;-75
2023/02/20 11:51:30;;;;;;;;;;;;;;;15.74;50.46;97286.50;5095554;28;20329;-75
2023/02/20 11:54:14;;;;;;;;;;;;;;;15.81;50.13;97285.34;5095734;28;20406;-75
2023/02/20 11:57:06;;;;;;;;;;;;;;;15.79;46.87;97279.47;5095556;28;20353;-76
2023/02/20 11:59:38;;;;;;;;;;;;;;;15.69;47.98;97286.34;5071852;28;19951;-75
2023/02/20 12:02:16;;;;;;;;;;;;;;;15.65;48.27;97277.28;5095404;28;19956;-75
2023/02/20 12:05:05;;;;;;;;;;;;;;;15.68;47.99;97279.44;5083491;28;20325;-75
2023/02/20 12:07:36;;;;;;;;;;;;;;;15.76;48.60;97271.19;5084634;28;19964;-75
2023/02/20 12:10:09;;;;;;;;;;;;;;;15.79;49.43;97270.72;5095088;28;19946;-75
2023/02/20 12:12:35;;;;;;;;;;;;;;;15.77;46.61;97270.16;5095330;28;19951;-75
2023/02/20 12:15:01;;;;;;;;;;;;;;;15.80;47.99;97269.69;5095162;28;19961;-75
2023/02/20 12:17:41;;;;;;;;;;;;;;;15.80;44.88;97262.56;5095170;28;19941;-75
2023/02/20 12:20:18;;;;;;;;;;;;;;;15.77;47.10;97270.97;5076843;28;19968;-75
2023/02/20 12:22:57;;;;;;;;;;;;;;;15.75;47.15;97265.09;5094983;28;19944;-75
2023/02/20 12:25:31;;;;;;;;;;;;;;;15.79;46.70;97258.31;5095160;28;19953;-75
2023/02/20 12:28:00;;;;;;;;;;;;;;;15.81;45.64;97258.91;5094902;28;19959;-76
2023/02/20 12:30:39;;;;;;;;;;;;;;;15.80;45.63;97256.47;5094992;28;19940;-76
2023/02/20 12:33:29;;;;;;;;;;;;;;;15.81;44.98;97245.69;5085624;28;19944;-76
2023/02/20 12:35:55;;;;;;;;;;;;;;;15.73;45.93;97246.03;5082311;28;19947;-76
2023/02/20 12:38:33;;;;;;;;;;;;;;;15.69;46.34;97236.91;5094555;28;20051;-76
2023/02/20 12:41:02;;;;;;;;;;;;;;;15.75;44.64;97229.94;5094579;28;20396;-76
2023/02/20 12:43:27;;;;;;;;;;;;;;;15.74;45.70;97230.94;5094483;28;19982;-76
2023/02/20 12:46:03;;;;;;;;;;;;;;;15.73;45.36;97224.06;5093845;28;20361;-76
2023/02/20 12:48:33;;;;;;;;;;;;;;;15.70;45.84;97225.28;5094643;28;19953;-76
2023/02/20 12:51:17;;;;;;;;;;;;;;;15.75;44.76;97216.72;5094545;28;19942;-76
2023/02/20 12:54:16;;;;;;;;;;;;;;;15.79;45.64;97207.25;5082080;28;19949;-76
2023/02/20 12:56:50;;;;;;;;;;;;;;;15.88;44.78;97200.59;5049543;28;19949;-76
2023/02/20 12:59:28;;;;;;;;;;;;;;;15.91;45.57;97186.88;5094409;28;20300;-76
2023/02/20 13:01:59;;;;;;;;;;;;;;;15.98;44.64;97181.44;5094483;28;19949;-76
2023/02/20 13:04:38;;;;;;;;;;;;;;;16.02;45.66;97175.47;5081900;28;19945;-76
2023/02/20 13:07:09;;;;;;;;;;;;;;;16.02;43.92;97172.00;5094324;28;19968;-76
2023/02/20 13:09:37;;;;;;;;;;;;;;;15.97;42.59;97167.44;5094360;28;19938;-76
2023/02/20 13:12:08;;;;;;;;;;;;;;;16.01;43.53;97167.78;5094149;28;19953;-76
2023/02/20 13:14:46;;;;;;;;;;;;;;;15.99;42.77;97162.69;5094257;28;19952;-76
2023/02/20 13:17:28;;;;;;;;;;;;;;;15.97;42.06;97156.03;5094549;28;19946;-76